Time;durP1;ratioP1;P1;durP2;ratioP2;P2;SDS_P1;SDS_P2;PMS_P1;PMS_P2;Temp;Humidity;BMP_temperature;BMP_pressure;BME280_temperature;BME280_humidity;BME280_pressure;Samples;Min_cycle;Max_cycle;Signal;HPM_P1;HPM_P2
2021/07/28 00:00:47;;;;;;;8.82;6.82;;;;;;;16.60;74.82;99094.69;5012314;28;20117;-67
2021/07/28 00:03:12;;;;;;;10.82;7.35;;;;;;;16.59;74.99;99100.97;5011286;28;20034;-66
2021/07/28 00:05:37;;;;;;;13.20;8.45;;;;;;;16.55;75.24;99088.94;5011816;28;20034;-66
2021/07/28 00:08:03;;;;;;;10.50;7.10;;;;;;;16.52;75.32;99085.53;5011287;28;20038;-66
2021/07/28 00:10:28;;;;;;;13.13;8.23;;;;;;;16.53;75.34;99094.38;5011362;28;20038;-66
2021/07/28 00:12:54;;;;;;;13.18;7.93;;;;;;;16.56;75.72;99091.44;5011501;28;20490;-66
2021/07/28 00:15:19;;;;;;;10.15;7.65;;;;;;;16.58;75.63;99091.31;5011441;28;20034;-66
2021/07/28 00:17:51;;;;;;;17.20;7.88;;;;;;;16.61;75.57;99085.72;5011814;28;20121;-67
2021/07/28 00:25:28;;;;;;;14.70;8.60;;;;;;;16.63;75.92;99083.78;5013366;28;20088;-66
2021/07/28 00:27:54;;;;;;;11.13;8.45;;;;;;;16.61;75.84;99078.56;5010961;28;20046;-66
2021/07/28 00:30:19;;;;;;;14.35;8.10;;;;;;;16.64;75.89;99082.81;5009988;28;20116;-66
2021/07/28 00:32:45;;;;;;;12.82;8.75;;;;;;;16.67;75.94;99078.06;5011510;28;20405;-67
2021/07/28 00:35:10;;;;;;;9.10;7.47;;;;;;;16.72;75.96;99075.84;5011365;28;20034;-67
2021/07/28 00:37:36;;;;;;;11.20;8.63;;;;;;;16.78;75.75;99073.63;5011078;28;20057;-66
2021/07/28 00:40:06;;;;;;;9.68;8.05;;;;;;;16.81;75.77;99073.38;5009916;28;20030;-67
2021/07/28 00:42:32;;;;;;;9.48;8.23;;;;;;;16.82;75.59;99070.59;5011025;28;20383;-67
2021/07/28 00:44:57;;;;;;;10.00;7.53;;;;;;;16.87;75.29;99068.38;5011052;28;20038;-66
2021/07/28 00:47:22;;;;;;;9.60;6.93;;;;;;;16.91;75.02;99064.50;5010645;28;20037;-66
2021/07/28 00:49:48;;;;;;;11.05;7.43;;;;;;;16.94;75.36;99058.91;5011228;28;20045;-66
2021/07/28 00:52:14;;;;;;;9.65;7.93;;;;;;;16.98;74.90;99059.44;5010685;28;20045;-66
2021/07/28 00:54:39;;;;;;;9.80;7.32;;;;;;;16.98;75.15;99055.97;5010448;28;20038;-66
2021/07/28 00:57:09;;;;;;;9.35;7.03;;;;;;;16.96;75.17;99056.09;5010474;28;20034;-67
2021/07/28 00:59:34;;;;;;;8.52;6.90;;;;;;;17.00;74.98;99062.00;5010799;28;20038;-66
2021/07/28 01:02:00;;;;;;;9.45;7.25;;;;;;;17.02;75.03;99060.88;4986616;28;20053;-66
2021/07/28 01:04:26;;;;;;;9.70;6.25;;;;;;;17.04;74.83;99060.75;5010579;28;20402;-65
2021/07/28 01:06:51;;;;;;;9.15;6.68;;;;;;;17.05;74.95;99057.09;5010870;28;20386;-65
2021/07/28 01:09:17;;;;;;;8.75;6.03;;;;;;;17.05;74.68;99049.94;5010898;28;20038;-66
2021/07/28 01:11:42;;;;;;;10.48;6.57;;;;;;;17.05;75.23;99054.44;5010565;28;20104;-65
2021/07/28 01:14:07;;;;;;;8.70;6.20;;;;;;;17.08;74.70;99057.69;5009867;28;20038;-66
2021/07/28 01:16:43;;;;;;;9.18;6.20;;;;;;;17.15;74.98;99056.19;5010198;28;20448;-67
2021/07/28 01:19:15;;;;;;;8.27;6.22;;;;;;;17.17;74.57;99048.03;5010839;28;20406;-66
2021/07/28 01:21:43;;;;;;;8.30;6.40;;;;;;;17.22;74.38;99050.28;5011056;28;20026;-65
2021/07/28 01:24:14;;;;;;;9.70;5.80;;;;;;;17.26;74.34;99047.22;5010497;28;20034;-65
2021/07/28 01:26:40;;;;;;;11.35;6.20;;;;;;;17.30;74.21;99042.44;5010537;28;20038;-66
2021/07/28 01:29:06;;;;;;;7.97;5.50;;;;;;;17.32;73.94;99043.16;5010459;28;20094;-65
2021/07/28 01:31:39;;;;;;;10.20;6.50;;;;;;;17.31;73.72;99038.81;5011400;28;20513;-66
2021/07/28 01:34:05;;;;;;;10.73;5.88;;;;;;;17.29;74.03;99041.63;5011489;28;20091;-65
2021/07/28 01:36:32;;;;;;;8.27;5.60;;;;;;;17.27;74.16;99038.25;5010468;28;20022;-65
2021/07/28 01:38:58;;;;;;;7.28;5.50;;;;;;;17.26;74.26;99033.91;5010261;28;20053;-65
2021/07/28 01:41:23;;;;;;;7.32;5.78;;;;;;;17.25;74.23;99040.19;5007070;28;20085;-66
2021/07/28 01:43:48;;;;;;;7.13;6.43;;;;;;;17.21;74.30;99035.31;5010129;28;20092;-66
2021/07/28 01:46:14;;;;;;;10.57;6.22;;;;;;;17.20;74.47;99039.75;5009856;28;20418;-65
2021/07/28 01:48:40;;;;;;;7.93;5.60;;;;;;;17.19;74.28;99034.59;5009596;28;20427;-65
2021/07/28 01:51:05;;;;;;;8.35;6.30;;;;;;;17.20;74.43;99039.75;5010028;28;20038;-65
2021/07/28 01:53:31;;;;;;;8.88;6.85;;;;;;;17.21;74.36;99036.13;5006860;28;20502;-65
2021/07/28 01:55:58;;;;;;;7.85;6.18;;;;;;;17.21;74.39;99036.13;5009734;28;20046;-66
2021/07/28 01:58:23;;;;;;;5.88;5.03;;;;;;;17.23;74.36;99036.84;5009635;28;20030;-65
2021/07/28 02:00:50;;;;;;;8.10;5.30;;;;;;;17.22;74.52;99032.47;5010435;28;20041;-65
2021/07/28 02:03:15;;;;;;;9.30;6.35;;;;;;;17.23;74.30;99035.97;5009905;28;20432;-66
2021/07/28 02:05:43;;;;;;;10.43;6.50;;;;;;;17.23;74.39;99036.84;5010028;28;20108;-66
2021/07/28 02:08:14;;;;;;;7.43;6.63;;;;;;;17.23;74.63;99039.50;5008021;28;20037;-66
2021/07/28 02:10:44;;;;;;;7.57;5.68;;;;;;;17.22;74.45;99039.63;5009658;28;20117;-66
2021/07/28 02:13:10;;;;;;;7.40;6.28;;;;;;;17.22;74.57;99045.81;5009477;28;20415;-65
2021/07/28 02:15:35;;;;;;;10.98;6.47;;;;;;;17.20;74.59;99036.25;5009701;28;20091;-66
2021/07/28 02:18:02;;;;;;;8.50;7.15;;;;;;;17.20;74.86;99031.78;5009564;28;20038;-66
2021/07/28 02:20:28;;;;;;;13.93;6.68;;;;;;;17.16;74.70;99036.53;5010120;28;20033;-66
2021/07/28 02:22:53;;;;;;;12.82;7.75;;;;;;;17.12;74.76;99029.78;5009685;28;20041;-65
2021/07/28 02:25:19;;;;;;;7.63;6.53;;;;;;;17.08;75.16;99030.19;5009837;28;20553;-66
2021/07/28 02:27:45;;;;;;;10.48;6.78;;;;;;;17.08;74.81;99024.88;5013054;28;20109;-65
2021/07/28 02:30:12;;;;;;;10.95;7.68;;;;;;;17.07;75.22;99028.53;5013688;28;20087;-65
2021/07/28 02:32:38;;;;;;;10.25;7.15;;;;;;;17.10;75.38;99026.41;5013434;28;20042;-65
2021/07/28 02:35:05;;;;;;;7.00;6.28;;;;;;;17.14;74.82;99029.66;5013617;28;20030;-65
2021/07/28 02:37:30;;;;;;;7.07;5.80;;;;;;;17.12;74.97;99028.97;5013084;28;20774;-65
2021/07/28 02:39:56;;;;;;;7.60;6.45;;;;;;;17.11;74.76;99019.28;5013566;28;20042;-65
2021/07/28 02:42:21;;;;;;;7.55;6.50;;;;;;;17.10;75.03;99017.59;5013803;28;20025;-66
2021/07/28 02:44:46;;;;;;;9.90;6.80;;;;;;;17.09;75.34;99010.59;5012954;28;20050;-66
2021/07/28 02:47:12;;;;;;;9.50;7.53;;;;;;;17.07;74.78;99007.22;5012895;28;20045;-66
2021/07/28 02:49:37;;;;;;;8.85;7.25;;;;;;;17.05;75.17;99011.84;5013185;28;20022;-66
2021/07/28 02:52:03;;;;;;;8.32;6.57;;;;;;;17.04;75.47;99005.66;5013213;28;20099;-66
2021/07/28 02:54:28;;;;;;;11.27;8.07;;;;;;;17.05;75.25;99011.84;5013066;28;20080;-65
2021/07/28 02:56:54;;;;;;;10.57;7.65;;;;;;;17.02;75.17;99002.28;5012696;28;20044;-67
2021/07/28 02:59:19;;;;;;;7.93;6.32;;;;;;;17.02;75.26;99004.13;5013078;28;20150;-66
2021/07/28 03:01:45;;;;;;;8.73;6.30;;;;;;;17.00;75.28;98998.91;5012939;28;20062;-66
2021/07/28 03:04:10;;;;;;;9.40;7.43;;;;;;;16.98;75.43;98992.03;5013006;28;20494;-66
2021/07/28 03:06:35;;;;;;;9.90;8.05;;;;;;;16.95;75.71;98988.66;5012898;28;20442;-66
2021/07/28 03:09:01;;;;;;;10.23;6.70;;;;;;;16.97;75.44;98990.38;5012853;28;20616;-67
2021/07/28 03:11:26;;;;;;;11.98;7.88;;;;;;;16.93;75.70;98990.66;5012871;28;20108;-66
2021/07/28 03:13:52;;;;;;;12.00;8.05;;;;;;;16.92;75.50;98988.94;5013396;28;20038;-66
2021/07/28 03:16:17;;;;;;;8.48;6.82;;;;;;;16.93;75.69;98995.13;5012280;28;20509;-67
2021/07/28 03:18:42;;;;;;;10.07;7.43;;;;;;;16.94;75.76;98997.66;5012779;28;20394;-67
2021/07/28 03:21:08;;;;;;;9.52;7.15;;;;;;;16.95;75.45;98991.34;5012990;28;20121;-66
2021/07/28 03:23:34;;;;;;;15.40;8.15;;;;;;;16.95;75.29;98995.81;5012748;28;20025;-65
2021/07/28 03:25:59;;;;;;;13.27;5.75;;;;;;;16.97;75.03;98998.38;5012714;28;20493;-64
2021/07/28 03:28:25;;;;;;;10.43;7.07;;;;;;;16.94;75.20;98997.66;5012295;28;20036;-67
2021/07/28 03:30:50;;;;;;;8.13;6.55;;;;;;;16.99;74.96;98996.41;5012717;28;20129;-66
2021/07/28 03:33:17;;;;;;;7.47;6.07;;;;;;;16.98;75.17;99005.38;5012571;28;20040;-66
2021/07/28 03:35:43;;;;;;;12.02;6.63;;;;;;;16.98;74.79;99006.19;4998145;28;20117;-67
2021/07/28 03:38:10;;;;;;;8.10;6.03;;;;;;;17.00;74.72;99008.75;4991108;28;20550;-67
2021/07/28 03:40:35;;;;;;;11.07;6.65;;;;;;;17.01;75.05;99005.13;4992562;28;20034;-66
2021/07/28 03:43:00;;;;;;;7.90;5.80;;;;;;;17.03;75.18;99003.13;4992529;28;20529;-66
2021/07/28 03:45:26;;;;;;;8.00;5.85;;;;;;;17.06;74.96;99001.06;4992801;28;20402;-66
2021/07/28 03:47:51;;;;;;;10.38;6.47;;;;;;;17.10;74.49;98999.78;4993722;28;20046;-66
2021/07/28 03:50:16;;;;;;;9.13;6.90;;;;;;;17.14;74.51;99000.38;4992656;28;20038;-66
2021/07/28 03:52:41;;;;;;;9.90;6.75;;;;;;;17.18;74.59;98999.13;4992574;28;20089;-66
2021/07/28 03:55:07;;;;;;;7.85;6.43;;;;;;;17.23;74.25;99010.22;4992719;28;20043;-67
2021/07/28 03:57:33;;;;;;;7.13;5.75;;;;;;;17.27;74.24;99011.59;4992243;28;20057;-66
2021/07/28 03:59:58;;;;;;;6.75;5.65;;;;;;;17.31;74.43;99007.69;4992635;28;20513;-67
2021/07/28 04:02:24;;;;;;;9.00;6.22;;;;;;;17.34;74.36;99015.41;5009037;28;20041;-67
2021/07/28 04:04:49;;;;;;;9.18;6.43;;;;;;;17.35;74.10;99013.56;5012082;28;20387;-66
2021/07/28 04:07:14;;;;;;;10.82;5.18;;;;;;;17.39;74.14;99025.66;5011454;28;20109;-66
2021/07/28 04:09:40;;;;;;;8.15;6.80;;;;;;;17.40;73.75;99019.38;5011710;28;20401;-66
2021/07/28 04:12:05;;;;;;;7.43;5.68;;;;;;;17.43;73.95;99018.25;5011367;28;20551;-67
2021/07/28 04:14:31;;;;;;;6.68;4.93;;;;;;;17.44;73.57;99015.41;5011610;28;20045;-66
2021/07/28 04:16:56;;;;;;;7.15;6.00;;;;;;;17.47;73.91;99025.78;5011283;28;20406;-66
2021/07/28 04:19:21;;;;;;;10.60;5.55;;;;;;;17.47;73.84;99015.13;5012046;28;20121;-65
2021/07/28 04:21:47;;;;;;;5.78;5.05;;;;;;;17.52;73.39;99014.72;5011825;28;20087;-65
2021/07/28 04:24:12;;;;;;;7.40;6.18;;;;;;;17.55;73.32;99017.97;5011488;28;20545;-66
2021/07/28 04:26:37;;;;;;;7.38;5.22;;;;;;;17.56;73.24;99014.31;5010775;28;20502;-67
2021/07/28 04:29:03;;;;;;;11.68;5.88;;;;;;;17.57;72.75;99010.69;5005668;28;20035;-64
2021/07/28 04:31:28;;;;;;;7.97;6.50;;;;;;;17.60;73.00;99002.41;4991368;28;20026;-67
2021/07/28 04:33:53;;;;;;;6.57;5.25;;;;;;;17.61;73.03;99003.25;4992080;28;20035;-66
2021/07/28 04:36:19;;;;;;;6.82;5.53;;;;;;;17.61;73.20;99019.22;4995661;28;20490;-67
2021/07/28 04:38:44;;;;;;;8.18;6.60;;;;;;;17.64;73.02;99018.94;4991817;28;20112;-66
2021/07/28 04:41:09;;;;;;;8.35;6.68;;;;;;;17.63;73.38;99025.28;4991400;28;20093;-66
2021/07/28 04:43:35;;;;;;;6.47;5.72;;;;;;;17.63;73.46;99030.59;4991544;28;20030;-66
2021/07/28 04:46:02;;;;;;;7.47;5.85;;;;;;;17.66;73.00;99024.16;4991265;28;20056;-66
2021/07/28 04:48:28;;;;;;;7.55;5.80;;;;;;;17.68;73.51;99014.19;4991044;28;20030;-66
2021/07/28 04:50:55;;;;;;;8.10;6.15;;;;;;;17.70;73.10;99015.75;4991947;28;20045;-66
2021/07/28 04:53:21;;;;;;;13.93;6.32;;;;;;;17.73;73.21;99012.78;5007518;28;20439;-67
2021/07/28 04:55:53;;;;;;;8.07;6.07;;;;;;;17.79;72.91;99011.38;5010829;28;20128;-67
2021/07/28 04:58:19;;;;;;;8.73;5.90;;;;;;;17.77;72.91;99021.31;5010809;28;20096;-67
2021/07/28 05:00:45;;;;;;;7.03;5.85;;;;;;;17.81;73.06;99010.28;5010872;28;20042;-67
2021/07/28 05:03:11;;;;;;;8.10;5.88;;;;;;;17.83;72.78;99012.81;5009889;28;20591;-65
2021/07/28 05:05:36;;;;;;;8.23;6.03;;;;;;;17.84;72.80;99009.16;5010733;28;20053;-66
2021/07/28 05:08:02;;;;;;;11.55;6.40;;;;;;;17.87;73.22;99000.91;5010599;28;20392;-67
2021/07/28 05:10:27;;;;;;;8.43;4.57;;;;;;;17.89;72.73;99006.91;4993145;28;20103;-66
2021/07/28 05:12:52;;;;;;;10.15;5.85;;;;;;;17.89;73.55;99009.56;5010516;28;20117;-66
2021/07/28 05:15:17;;;;;;;6.38;5.38;;;;;;;17.89;73.99;99009.56;5010486;28;20030;-66
2021/07/28 05:17:43;;;;;;;6.55;5.03;;;;;;;17.90;74.75;99015.78;5009917;28;20064;-66
2021/07/28 05:20:09;;;;;;;7.53;5.65;;;;;;;17.84;74.88;99013.66;5010292;28;20034;-66
2021/07/28 05:22:35;;;;;;;6.22;5.22;;;;;;;17.81;75.51;99007.63;5010141;28;20030;-66
2021/07/28 05:25:00;;;;;;;8.30;6.00;;;;;;;17.79;75.33;99012.25;5010221;28;20030;-66
2021/07/28 05:27:28;;;;;;;7.93;5.15;;;;;;;17.81;75.64;99009.44;5010540;28;20037;-66
2021/07/28 05:29:53;;;;;;;8.27;5.85;;;;;;;17.77;75.26;99008.88;5010347;28;20042;-66
2021/07/28 05:32:21;;;;;;;8.45;4.93;;;;;;;17.79;75.42;99006.91;5010791;28;20037;-66
2021/07/28 05:34:46;;;;;;;5.50;4.50;;;;;;;17.83;75.20;99011.97;5011275;28;20116;-67
2021/07/28 05:37:12;;;;;;;6.03;4.85;;;;;;;17.82;74.93;99011.16;5010650;28;20053;-66
2021/07/28 05:39:37;;;;;;;8.07;6.00;;;;;;;17.83;74.59;99017.31;5009842;28;20030;-66
2021/07/28 05:42:03;;;;;;;7.20;5.13;;;;;;;17.79;74.73;99012.25;5010028;28;20037;-66
2021/07/28 05:44:29;;;;;;;11.93;5.57;;;;;;;17.84;74.64;99009.16;5009965;28;20030;-67
2021/07/28 05:46:54;;;;;;;6.65;4.95;;;;;;;17.89;74.34;99006.91;5014712;28;20040;-66
2021/07/28 05:49:20;;;;;;;9.50;6.45;;;;;;;17.93;74.76;99012.81;5029658;28;20159;-66
2021/07/28 05:51:45;;;;;;;5.95;5.18;;;;;;;17.90;74.59;99005.94;5029314;28;20041;-65
2021/07/28 05:54:11;;;;;;;12.82;5.88;;;;;;;17.90;74.59;99002.44;5029442;28;20029;-66
2021/07/28 05:56:36;;;;;;;6.78;5.18;;;;;;;17.92;74.01;99005.81;5029100;28;20044;-66
2021/07/28 05:59:01;;;;;;;6.28;4.80;;;;;;;17.98;73.74;99005.22;5029355;28;20094;-65
2021/07/28 06:01:27;;;;;;;6.78;5.18;;;;;;;18.05;73.58;99006.34;5028586;28;20106;-67
2021/07/28 06:03:53;;;;;;;8.18;6.03;;;;;;;18.17;73.23;99005.19;5029499;28;20432;-67
2021/07/28 06:06:18;;;;;;;7.00;5.20;;;;;;;18.29;72.46;99008.56;5029234;28;20037;-66
2021/07/28 06:08:43;;;;;;;6.30;5.18;;;;;;;18.46;72.01;99009.66;5029671;28;20508;-65
2021/07/28 06:11:09;;;;;;;9.82;5.95;;;;;;;18.64;71.37;99007.88;5029206;28;20037;-66
2021/07/28 06:13:34;;;;;;;6.72;5.70;;;;;;;18.75;70.54;99008.69;5029272;28;20045;-66
2021/07/28 06:15:59;;;;;;;7.82;5.35;;;;;;;18.91;70.14;99018.78;5029325;28;20037;-66
2021/07/28 06:18:24;;;;;;;7.13;5.53;;;;;;;18.98;69.58;99014.53;5029508;28;20025;-65
2021/07/28 06:20:50;;;;;;;9.40;5.65;;;;;;;19.03;69.44;99018.44;5028062;28;20505;-66
2021/07/28 06:23:15;;;;;;;7.07;4.95;;;;;;;19.11;69.48;99015.00;5030046;28;20454;-66
2021/07/28 06:25:41;;;;;;;7.22;5.10;;;;;;;19.15;68.96;99015.53;5030850;28;20033;-65
2021/07/28 06:28:06;;;;;;;7.65;4.95;;;;;;;19.17;69.03;99024.25;5029677;28;20064;-65
2021/07/28 06:30:31;;;;;;;6.03;4.32;;;;;;;19.09;69.21;99023.16;5029014;28;20041;-66
2021/07/28 06:32:57;;;;;;;6.90;4.72;;;;;;;19.11;69.12;99025.69;5027759;28;20036;-65
2021/07/28 06:35:22;;;;;;;8.50;4.95;;;;;;;19.11;69.17;99031.03;5019532;28;20030;-66
2021/07/28 06:37:47;;;;;;;9.30;5.10;;;;;;;19.17;68.98;99037.63;5009060;28;20038;-66
2021/07/28 06:40:13;;;;;;;5.63;4.20;;;;;;;19.36;68.74;99037.50;5009179;28;20041;-66
2021/07/28 06:42:39;;;;;;;5.47;4.53;;;;;;;19.39;68.15;99041.72;5009236;28;20076;-66
2021/07/28 06:45:05;;;;;;;7.05;5.35;;;;;;;19.40;68.41;99036.22;5009459;28;20112;-66
2021/07/28 06:47:30;;;;;;;6.78;4.60;;;;;;;19.36;68.13;99037.50;5008691;28;20188;-67
2021/07/28 06:49:55;;;;;;;5.40;4.78;;;;;;;19.38;68.46;99034.69;5009894;28;20074;-66
2021/07/28 06:52:21;;;;;;;6.53;5.25;;;;;;;19.51;67.90;99036.00;5007762;28;20062;-66
2021/07/28 06:54:46;;;;;;;8.55;5.45;;;;;;;19.71;67.61;99050.13;5009170;28;20057;-67
2021/07/28 06:57:11;;;;;;;9.38;4.40;;;;;;;19.68;67.77;99039.72;5009018;28;20091;-66
2021/07/28 06:59:37;;;;;;;8.90;4.13;;;;;;;19.57;69.66;99055.13;5007908;28;20385;-67
2021/07/28 07:02:02;;;;;;;5.78;4.30;;;;;;;19.44;69.31;99059.00;5009099;28;20160;-66
2021/07/28 07:04:28;;;;;;;7.05;4.93;;;;;;;19.26;67.96;99063.47;5009544;28;20030;-67
2021/07/28 07:06:54;;;;;;;4.70;3.70;;;;;;;19.11;68.19;99062.28;5008945;28;20053;-66
2021/07/28 07:09:19;;;;;;;6.45;3.92;;;;;;;19.04;67.71;99059.34;5008434;28;20044;-66
2021/07/28 07:11:45;;;;;;;6.32;4.10;;;;;;;18.96;68.29;99056.56;5009283;28;20050;-67
2021/07/28 07:14:10;;;;;;;5.05;3.45;;;;;;;18.92;68.76;99053.34;5012425;28;20478;-65
2021/07/28 07:16:35;;;;;;;5.85;4.07;;;;;;;18.83;68.97;99062.25;5012289;28;20038;-66
2021/07/28 07:19:01;;;;;;;6.60;4.68;;;;;;;18.91;68.95;99051.66;5012375;28;20038;-68
2021/07/28 07:21:26;;;;;;;7.88;4.75;;;;;;;19.15;68.79;99058.28;5013194;28;20049;-65
2021/07/28 07:23:54;;;;;;;7.88;4.60;;;;;;;19.65;67.41;99049.84;5012678;28;20053;-66
2021/07/28 07:26:19;;;;;;;7.47;4.13;;;;;;;20.12;65.99;99057.69;5011985;28;20030;-66
2021/07/28 07:28:45;;;;;;;6.82;4.30;;;;;;;20.50;64.13;99055.59;5012299;28;20042;-66
2021/07/28 07:31:10;;;;;;;5.40;4.40;;;;;;;20.65;63.47;99048.72;5012192;28;20486;-66
2021/07/28 07:33:37;;;;;;;5.60;3.80;;;;;;;20.51;63.64;99049.28;5011754;28;20061;-66
2021/07/28 07:36:03;;;;;;;19.30;4.18;;;;;;;20.82;62.57;99041.59;5010664;28;20044;-65
2021/07/28 07:38:28;;;;;;;5.68;3.85;;;;;;;21.12;61.69;99048.31;5011750;28;20482;-66
2021/07/28 07:40:53;;;;;;;7.00;4.43;;;;;;;21.36;59.84;99041.31;5012260;28;20037;-67
2021/07/28 07:43:19;;;;;;;5.90;3.88;;;;;;;21.57;58.82;99048.97;5021873;28;20033;-67
2021/07/28 07:45:44;;;;;;;7.25;4.20;;;;;;;21.49;59.01;99052.47;5031721;28;20044;-66
2021/07/28 07:48:09;;;;;;;9.65;4.53;;;;;;;21.26;59.97;99046.00;5029832;28;20049;-67
2021/07/28 07:50:35;;;;;;;6.38;4.00;;;;;;;21.03;59.96;99051.94;5031789;28;20037;-67
2021/07/28 07:53:05;;;;;;;7.78;4.40;;;;;;;20.92;59.92;99050.38;5031516;28;20058;-67
2021/07/28 07:55:30;;;;;;;9.48;4.72;;;;;;;20.77;58.87;99066.22;5031912;28;20091;-66
2021/07/28 07:57:57;;;;;;;8.15;4.20;;;;;;;20.81;58.54;99061.38;5031471;28;20037;-66
2021/07/28 08:00:22;;;;;;;4.38;3.90;;;;;;;21.12;57.69;99055.50;5031027;28;20037;-66
2021/07/28 08:02:47;;;;;;;7.78;4.10;;;;;;;20.88;58.19;99061.59;5031496;28;20037;-66
2021/07/28 08:05:13;;;;;;;5.70;4.57;;;;;;;20.61;59.17;99057.25;5031255;28;20025;-66
2021/07/28 08:07:38;;;;;;;6.45;4.05;;;;;;;20.50;59.49;99053.78;5029715;28;20037;-67
2021/07/28 08:10:04;;;;;;;5.32;3.47;;;;;;;20.71;59.05;99053.44;5031218;28;20029;-65
2021/07/28 08:12:29;;;;;;;7.18;4.20;;;;;;;20.65;59.65;99058.59;5031587;28;20554;-66
2021/07/28 08:14:54;;;;;;;5.38;4.07;;;;;;;20.83;58.89;99056.69;5031364;28;20056;-65
2021/07/28 08:17:20;;;;;;;8.85;3.80;;;;;;;20.84;58.47;99062.88;5030916;28;20401;-66
2021/07/28 08:19:45;;;;;;;5.78;4.60;;;;;;;21.25;57.64;99047.00;5030979;28;20041;-66
2021/07/28 08:22:10;;;;;;;6.68;4.88;;;;;;;21.84;56.13;99050.53;5031447;28;20052;-67
2021/07/28 08:24:36;;;;;;;8.93;3.67;;;;;;;22.27;54.32;99049.41;5030511;28;20481;-66
2021/07/28 08:27:01;;;;;;;12.77;4.90;;;;;;;22.43;54.32;99048.56;5020289;28;20060;-66
2021/07/28 08:29:26;;;;;;;5.15;3.72;;;;;;;22.36;54.01;99044.84;4991706;28;20049;-65
2021/07/28 08:31:52;;;;;;;7.60;4.07;;;;;;;22.43;53.88;99051.22;5005422;28;20045;-66
2021/07/28 08:34:17;;;;;;;5.20;3.90;;;;;;;22.58;53.47;99047.88;5004730;28;20042;-65
2021/07/28 08:36:42;;;;;;;5.20;4.00;;;;;;;22.09;54.27;99038.78;5004933;28;20045;-65
2021/07/28 08:39:08;;;;;;;7.85;3.80;;;;;;;21.92;55.46;99055.91;5003234;28;20523;-65
2021/07/28 08:41:35;;;;;;;7.85;4.20;;;;;;;21.70;55.97;99045.81;5003860;28;20046;-66
2021/07/28 08:44:00;;;;;;;5.78;3.20;;;;;;;21.55;56.48;99040.25;5006417;28;20117;-66
2021/07/28 08:46:27;;;;;;;8.88;4.05;;;;;;;21.55;55.91;99051.81;5004656;28;20041;-67
2021/07/28 08:48:53;;;;;;;6.90;3.95;;;;;;;21.35;56.02;99055.75;5004708;28;20054;-67
2021/07/28 08:51:18;;;;;;;7.90;3.78;;;;;;;21.17;56.27;99055.88;5004727;28;20057;-66
2021/07/28 08:53:44;;;;;;;8.13;4.13;;;;;;;21.28;56.44;99044.81;5002353;28;20046;-66
2021/07/28 08:56:09;;;;;;;6.47;3.92;;;;;;;21.41;56.14;99050.63;5004393;28;20061;-66
2021/07/28 08:58:35;;;;;;;7.70;3.95;;;;;;;21.56;55.94;99045.47;5004430;28;20049;-66
2021/07/28 09:01:00;;;;;;;5.95;3.78;;;;;;;21.64;55.27;99044.63;5005380;28;20033;-66
2021/07/28 09:03:26;;;;;;;5.40;3.70;;;;;;;21.69;54.14;99058.38;5004505;28;20741;-66
2021/07/28 09:05:55;;;;;;;7.20;5.43;;;;;;;21.84;53.17;99051.38;5005086;28;20139;-65
2021/07/28 09:08:24;;;;;;;5.43;4.10;;;;;;;21.91;53.30;99046.19;5004236;28;20240;-66
2021/07/28 09:11:00;;;;;;;9.63;3.72;;;;;;;22.08;52.47;99057.78;5003903;28;20144;-67
2021/07/28 09:13:37;;;;;;;6.68;3.90;;;;;;;22.16;52.33;99054.25;5004566;28;20584;-65
2021/07/28 09:16:05;;;;;;;5.90;3.63;;;;;;;22.52;51.78;99054.75;5004854;28;20053;-66
2021/07/28 09:18:42;;;;;;;6.60;4.32;;;;;;;22.67;51.49;99061.13;5005150;28;20034;-65
2021/07/28 09:21:19;;;;;;;4.65;3.63;;;;;;;22.64;51.86;99066.84;5005003;28;20052;-65
2021/07/28 09:23:50;;;;;;;7.57;3.95;;;;;;;22.50;51.31;99067.53;4996524;28;20056;-66
2021/07/28 09:26:46;;;;;;;8.18;3.30;;;;;;;22.29;51.61;99063.50;5004930;28;20069;-66
2021/07/28 09:29:13;;;;;;;5.68;3.75;;;;;;;22.25;52.23;99067.53;5004832;28;20049;-65
2021/07/28 09:31:53;;;;;;;9.05;4.22;;;;;;;22.57;50.95;99062.28;5002413;28;20493;-66
2021/07/28 09:34:19;;;;;;;7.85;4.25;;;;;;;23.31;49.42;99057.59;5004577;28;20121;-70
2021/07/28 09:36:45;;;;;;;6.72;3.63;;;;;;;24.27;47.34;99060.81;5003301;28;20100;-72
2021/07/28 09:39:35;;;;;;;5.25;3.80;;;;;;;25.19;44.78;99056.06;5003866;28;20057;-71
2021/07/28 09:42:09;;;;;;;24.58;6.72;;;;;;;24.87;45.96;99062.63;5008956;28;20042;-71
2021/07/28 09:44:35;;;;;;;10.32;3.95;;;;;;;25.13;45.41;99055.94;5005317;28;20073;-71
2021/07/28 09:47:06;;;;;;;17.73;5.15;;;;;;;25.38;44.46;99054.63;5004215;28;20120;-71
2021/07/28 09:49:32;;;;;;;8.52;4.57;;;;;;;25.16;43.77;99045.63;5007407;28;20026;-71
2021/07/28 09:51:58;;;;;;;6.10;3.95;;;;;;;25.28;43.46;99038.75;5008416;28;20042;-71
2021/07/28 09:54:29;;;;;;;8.23;3.50;;;;;;;26.07;41.25;99043.34;5004091;28;20034;-72
2021/07/28 09:56:55;;;;;;;5.07;3.38;;;;;;;26.52;40.04;99037.69;5004052;28;20453;-70
2021/07/28 09:59:24;;;;;;;9.23;3.95;;;;;;;26.91;39.32;99044.44;5004623;28;20030;-71
2021/07/28 10:01:51;;;;;;;6.35;3.45;;;;;;;27.25;38.45;99045.47;5003906;28;20033;-71
2021/07/28 10:04:19;;;;;;;12.52;4.45;;;;;;;26.99;38.08;99041.56;5004878;28;20272;-71
2021/07/28 10:06:47;;;;;;;7.85;3.53;;;;;;;26.88;38.36;99031.31;5004005;28;20025;-71
2021/07/28 10:09:16;;;;;;;6.70;3.72;;;;;;;25.52;40.67;99044.81;5003714;28;20029;-71
2021/07/28 10:11:50;;;;;;;5.85;3.05;;;;;;;24.59;42.42;99039.00;4999751;28;20116;-73
2021/07/28 10:14:20;;;;;;;5.95;2.83;;;;;;;24.14;44.33;99040.72;5008723;28;20025;-71
2021/07/28 10:16:46;;;;;;;5.80;3.35;;;;;;;23.85;45.43;99046.00;5023445;28;20037;-72
2021/07/28 10:19:12;;;;;;;5.28;3.78;;;;;;;24.34;44.53;99045.59;5023124;28;20052;-72
2021/07/28 10:21:38;;;;;;;4.90;3.47;;;;;;;24.68;44.21;99033.53;5023124;28;20116;-71
2021/07/28 10:24:05;;;;;;;4.65;3.55;;;;;;;25.31;43.04;99034.00;4988890;28;20044;-71
2021/07/28 10:26:38;;;;;;;3.90;3.00;;;;;;;26.63;40.65;99030.94;4988321;28;20034;-71
2021/07/28 10:29:04;;;;;;;8.15;3.97;;;;;;;27.53;38.62;99031.81;4987547;28;20449;-70
2021/07/28 10:31:45;;;;;;;6.25;4.18;;;;;;;28.10;37.50;99022.34;4983546;28;20528;-71
2021/07/28 10:34:32;;;;;;;5.53;3.42;;;;;;;28.58;37.05;99032.19;4984427;28;20134;-69
2021/07/28 10:37:05;;;;;;;15.35;5.05;;;;;;;28.49;35.33;99034.28;4984415;28;20121;-70
2021/07/28 10:39:46;;;;;;;6.45;3.22;;;;;;;27.34;36.89;99034.25;4984106;28;20038;-71
2021/07/28 10:42:19;;;;;;;5.65;3.10;;;;;;;26.53;38.88;99028.56;4983842;28;20039;-71
2021/07/28 10:45:11;;;;;;;8.35;3.63;;;;;;;26.72;38.99;99035.16;4983902;28;20049;-72
2021/07/28 10:47:36;;;;;;;7.70;4.18;;;;;;;27.55;36.81;99037.88;4981981;28;20451;-71
2021/07/28 10:50:25;;;;;;;6.60;3.40;;;;;;;26.73;37.46;99039.53;4988130;28;20108;-70
2021/07/28 10:52:55;;;;;;;3.20;2.35;;;;;;;25.86;39.36;99040.66;4987350;28;20292;-72
2021/07/28 10:55:23;;;;;;;5.43;3.17;;;;;;;25.06;40.62;99053.16;4987832;28;20108;-72
2021/07/28 10:57:50;;;;;;;7.50;3.20;;;;;;;24.67;41.92;99048.03;4987968;28;20066;-72
2021/07/28 11:00:35;;;;;;;4.97;3.17;;;;;;;24.16;43.03;99049.47;4988447;28;20034;-72
2021/07/28 11:03:00;;;;;;;3.83;2.97;;;;;;;23.88;43.99;99048.34;4986735;28;20045;-72
2021/07/28 11:05:30;;;;;;;14.00;4.45;;;;;;;23.68;44.64;99054.19;4988136;28;20035;-70
2021/07/28 11:08:12;;;;;;;10.40;3.22;;;;;;;23.45;44.93;99040.66;4987831;28;20065;-72
2021/07/28 11:11:01;;;;;;;6.10;3.20;;;;;;;23.11;45.49;99049.94;4988145;28;20046;-71
2021/07/28 11:13:31;;;;;;;4.07;2.65;;;;;;;22.90;46.45;99063.06;4987914;28;20043;-71
2021/07/28 11:16:02;;;;;;;3.80;2.85;;;;;;;22.60;47.36;99061.97;4987941;28;20582;-71
2021/07/28 11:18:48;;;;;;;4.80;3.03;;;;;;;22.32;47.65;99059.63;4988313;28;20050;-73
2021/07/28 11:21:21;;;;;;;6.32;3.40;;;;;;;22.18;47.99;99071.03;4986421;28;20144;-71
2021/07/28 11:24:00;;;;;;;3.72;2.78;;;;;;;22.55;47.28;99058.97;4998992;28;20066;-71
2021/07/28 11:26:36;;;;;;;4.57;2.97;;;;;;;22.76;46.86;99061.91;5005987;28;20026;-71
2021/07/28 11:29:05;;;;;;;4.60;2.70;;;;;;;22.57;47.28;99054.22;5006272;28;20084;-71
2021/07/28 11:31:33;;;;;;;4.28;2.72;;;;;;;22.46;48.00;99067.00;5006702;28;20061;-71
2021/07/28 11:34:07;;;;;;;9.00;3.92;;;;;;;22.22;47.69;99067.03;4993328;28;20230;-70
2021/07/28 11:36:34;;;;;;;4.53;2.97;;;;;;;22.59;46.46;99065.66;4999265;28;20551;-70